createdAt,value
2023-03-06T00:00:56.466Z,11.85
2023-03-06T00:01:58.959Z,11.15
2023-03-06T00:03:00.842Z,11.02
2023-03-06T00:04:02.783Z,10.90
2023-03-06T00:05:05.028Z,11.75
2023-03-06T00:06:07.249Z,11.32
2023-03-06T00:07:09.448Z,11.02
2023-03-06T00:08:11.620Z,11.18
2023-03-06T00:09:13.521Z,10.68
2023-03-06T00:10:18.232Z,11.90
2023-03-06T00:11:21.068Z,10.35
2023-03-06T00:12:23.305Z,11.18
2023-03-06T00:13:26.619Z,10.18
2023-03-06T00:14:28.615Z,11.02
2023-03-06T00:15:30.924Z,10.13
2023-03-06T00:16:32.960Z,10.25
2023-03-06T00:17:36.026Z,10.45
2023-03-06T00:18:37.938Z,9.65
2023-03-06T00:19:39.827Z,10.88
2023-03-06T00:20:43.626Z,9.80
2023-03-06T00:21:45.590Z,9.95
2023-03-06T00:22:48.006Z,10.40
2023-03-06T00:23:49.876Z,9.30
2023-03-06T00:24:53.615Z,9.15
2023-03-06T00:25:55.501Z,9.85
2023-03-06T00:26:57.457Z,8.90
2023-03-06T00:27:59.618Z,9.73
2023-03-06T00:29:01.665Z,8.98
2023-03-06T00:30:03.927Z,9.00
2023-03-06T00:31:05.974Z,9.02
2023-03-06T00:32:08.072Z,10.27
2023-03-06T00:33:11.249Z,9.55
2023-03-06T00:34:13.279Z,9.65
2023-03-06T00:35:16.240Z,8.55
2023-03-06T00:36:18.477Z,10.02
2023-03-06T00:37:22.317Z,9.15
2023-03-06T00:38:27.527Z,9.77
2023-03-06T00:39:31.002Z,10.25
2023-03-06T00:40:32.987Z,10.40
2023-03-06T00:41:35.039Z,8.82
2023-03-06T00:42:37.016Z,9.90
2023-03-06T00:43:39.432Z,10.55
2023-03-06T00:44:42.900Z,9.70
2023-03-06T00:45:44.928Z,10.45
2023-03-06T00:46:46.896Z,10.02
2023-03-06T00:47:48.792Z,10.60
2023-03-06T00:48:50.992Z,10.65
2023-03-06T00:49:55.872Z,10.63
2023-03-06T00:50:57.829Z,10.45
2023-03-06T00:51:59.878Z,10.25
2023-03-06T00:53:01.839Z,10.10
2023-03-06T00:54:03.993Z,11.07
2023-03-06T00:55:06.412Z,10.57
2023-03-06T00:56:09.206Z,10.57
2023-03-06T00:57:11.133Z,11.35
2023-03-06T00:58:13.517Z,10.40
2023-03-06T00:59:15.886Z,10.65
2023-03-06T01:00:18.271Z,11.60
2023-03-06T01:01:20.224Z,11.27
2023-03-06T01:02:22.229Z,12.05
2023-03-06T01:03:24.139Z,11.07
2023-03-06T01:04:27.705Z,11.95
2023-03-06T01:05:30.957Z,11.23
2023-03-06T01:06:34.349Z,11.65
2023-03-06T01:07:38.235Z,11.30
2023-03-06T01:08:40.241Z,10.77
2023-03-06T01:09:42.728Z,10.32
2023-03-06T01:10:44.618Z,10.13
2023-03-06T01:11:46.813Z,10.55
2023-03-06T01:12:48.735Z,10.68
2023-03-06T01:13:50.626Z,9.88
2023-03-06T01:14:55.180Z,10.27
2023-03-06T01:16:06.626Z,10.80
2023-03-06T01:17:08.596Z,9.82
2023-03-06T01:18:11.210Z,10.18
2023-03-06T01:19:13.459Z,10.18
2023-03-06T01:20:18.563Z,10.38
2023-03-06T01:21:20.474Z,9.85
2023-03-06T01:22:22.472Z,9.32
2023-03-06T01:23:24.467Z,9.73
2023-03-06T01:24:26.435Z,9.65
2023-03-06T01:25:31.721Z,9.43
2023-03-06T01:26:34.527Z,9.45
2023-03-06T01:27:36.550Z,10.18
2023-03-06T01:28:39.247Z,9.85
2023-03-06T01:29:41.291Z,9.60
2023-03-06T01:30:43.587Z,9.25
2023-03-06T01:31:45.511Z,10.05
2023-03-06T01:32:48.314Z,10.23
2023-03-06T01:33:50.470Z,10.70
2023-03-06T01:34:52.702Z,11.48
2023-03-06T01:35:55.006Z,9.82
2023-03-06T01:36:57.085Z,11.07
2023-03-06T01:37:59.156Z,10.18
2023-03-06T01:39:01.041Z,10.07
2023-03-06T01:40:03.407Z,11.00
2023-03-06T01:41:06.244Z,9.52
2023-03-06T01:42:08.144Z,10.40
2023-03-06T01:43:28.587Z,9.88
2023-03-06T01:44:30.505Z,9.98
2023-03-06T01:45:34.974Z,10.05
2023-03-06T01:46:46.885Z,10.10
2023-03-06T01:47:48.875Z,10.52
2023-03-06T01:48:55.601Z,11.00
2023-03-06T01:50:00.512Z,9.80
2023-03-06T01:51:02.650Z,10.55
2023-03-06T01:52:11.989Z,10.80
2023-03-06T01:53:15.343Z,10.98
2023-03-06T01:54:27.856Z,10.77
2023-03-06T01:55:33.921Z,10.40
2023-03-06T01:56:36.565Z,10.30
2023-03-06T01:57:44.151Z,10.52
2023-03-06T01:58:46.774Z,10.50
2023-03-06T01:59:55.452Z,11.00
2023-03-06T02:00:59.051Z,10.00
2023-03-06T02:02:02.802Z,10.05
2023-03-06T02:03:09.950Z,10.40
2023-03-06T02:04:12.976Z,10.48
2023-03-06T02:05:14.854Z,10.50
2023-03-06T02:06:19.812Z,11.18
2023-03-06T02:07:22.432Z,11.23
2023-03-06T02:08:24.948Z,11.35
2023-03-06T02:09:30.171Z,10.50
2023-03-06T02:10:32.318Z,11.05
2023-03-06T02:11:34.211Z,10.35
2023-03-06T02:12:37.630Z,9.90
2023-03-06T02:13:40.863Z,10.07
2023-03-06T02:14:44.311Z,9.60
2023-03-06T02:15:46.286Z,9.90
2023-03-06T02:16:48.580Z,9.45
2023-03-06T02:17:52.215Z,8.73
2023-03-06T02:18:54.573Z,9.05
2023-03-06T02:20:09.240Z,9.43
2023-03-06T02:21:20.367Z,10.48
2023-03-06T02:22:25.853Z,9.52
2023-03-06T02:23:45.825Z,9.80
2023-03-06T02:25:00.716Z,10.30
2023-03-06T02:26:04.091Z,10.40
2023-03-06T02:27:08.137Z,10.80
2023-03-06T02:28:13.916Z,10.38
2023-03-06T02:29:24.063Z,10.50
2023-03-06T02:30:27.701Z,10.55
2023-03-06T02:31:32.161Z,10.82
2023-03-06T02:32:34.060Z,9.75
2023-03-06T02:33:35.981Z,10.75
2023-03-06T02:34:37.825Z,10.50
2023-03-06T02:35:40.634Z,9.95
2023-03-06T02:36:47.758Z,10.30
2023-03-06T02:37:49.940Z,10.43
2023-03-06T02:38:52.671Z,9.95
2023-03-06T02:40:05.975Z,9.18
2023-03-06T02:41:09.263Z,9.48
2023-03-06T02:42:21.552Z,9.57
2023-03-06T02:43:28.211Z,9.90
2023-03-06T02:44:30.643Z,9.95
2023-03-06T02:45:45.234Z,9.45
2023-03-06T02:46:47.142Z,9.48
2023-03-06T02:47:49.471Z,9.65
2023-03-06T02:48:51.325Z,9.70
2023-03-06T02:49:53.338Z,9.50
2023-03-06T02:50:55.236Z,8.82
2023-03-06T02:51:57.148Z,9.07
2023-03-06T02:52:59.409Z,10.18
2023-03-06T02:54:01.554Z,9.25
2023-03-06T02:55:03.809Z,9.73
2023-03-06T02:56:06.155Z,9.80
2023-03-06T02:57:08.143Z,9.43
2023-03-06T02:58:10.871Z,8.63
2023-03-06T02:59:13.335Z,9.50
2023-03-06T03:00:16.423Z,9.93
2023-03-06T03:01:18.775Z,9.18
2023-03-06T03:02:20.926Z,9.75
2023-03-06T03:03:23.216Z,10.30
2023-03-06T03:04:27.666Z,10.32
2023-03-06T03:05:30.293Z,11.40
2023-03-06T03:06:32.740Z,11.68
2023-03-06T03:07:34.905Z,11.00
2023-03-06T03:08:37.693Z,10.80
2023-03-06T03:09:39.854Z,11.27
2023-03-06T03:10:41.761Z,13.80
2023-03-06T03:11:43.740Z,13.32
2023-03-06T03:12:46.119Z,13.65
2023-03-06T03:13:48.642Z,12.88
2023-03-06T03:14:51.297Z,13.00
2023-03-06T03:16:01.469Z,14.70
2023-03-06T03:17:03.618Z,14.25
2023-03-06T03:18:05.510Z,15.60
2023-03-06T03:19:07.762Z,15.93
2023-03-06T03:20:13.906Z,13.52
2023-03-06T03:21:15.851Z,14.00
2023-03-06T03:22:19.641Z,14.80
2023-03-06T03:23:22.243Z,14.95
2023-03-06T03:24:25.217Z,13.50
2023-03-06T03:25:27.771Z,14.73
2023-03-06T03:26:30.082Z,14.13
2023-03-06T03:27:32.452Z,13.45
2023-03-06T03:28:34.585Z,13.68
2023-03-06T03:29:37.128Z,12.48
2023-03-06T03:30:40.290Z,11.98
2023-03-06T03:31:42.794Z,12.37
2023-03-06T03:32:44.687Z,11.75
2023-03-06T03:33:47.111Z,12.30
2023-03-06T03:34:49.483Z,12.25
2023-03-06T03:36:03.539Z,12.63
2023-03-06T03:37:05.909Z,12.32
2023-03-06T03:38:07.880Z,12.88
2023-03-06T03:39:10.251Z,13.10
2023-03-06T03:40:13.180Z,12.75
2023-03-06T03:41:15.082Z,13.48
2023-03-06T03:42:16.976Z,12.23
2023-03-06T03:43:19.609Z,12.52
2023-03-06T03:44:21.561Z,12.40
2023-03-06T03:45:24.205Z,11.70
2023-03-06T03:46:27.581Z,11.27
2023-03-06T03:47:29.857Z,10.05
2023-03-06T03:48:32.220Z,10.52
2023-03-06T03:49:34.886Z,10.65
2023-03-06T03:50:38.242Z,10.77
2023-03-06T03:51:40.947Z,10.20
2023-03-06T03:52:43.076Z,10.05
2023-03-06T03:53:46.146Z,10.23
2023-03-06T03:54:48.589Z,10.55
2023-03-06T03:55:50.877Z,10.77
2023-03-06T03:56:53.289Z,10.57
2023-03-06T03:57:55.668Z,10.20
2023-03-06T03:58:57.789Z,10.57
2023-03-06T04:00:00.322Z,11.30
2023-03-06T04:01:03.258Z,11.85
2023-03-06T04:02:05.812Z,12.20
2023-03-06T04:03:08.478Z,12.48
2023-03-06T04:04:10.986Z,11.43
2023-03-06T04:05:15.717Z,13.30
2023-03-06T04:06:18.427Z,10.68
2023-03-06T04:07:21.321Z,10.65
2023-03-06T04:08:25.314Z,9.05
2023-03-06T04:09:27.340Z,9.77
2023-03-06T04:10:29.490Z,8.63
2023-03-06T04:11:31.650Z,9.68
2023-03-06T04:12:34.100Z,8.50
2023-03-06T04:13:36.394Z,8.52
2023-03-06T04:14:38.453Z,8.05
2023-03-06T04:15:40.836Z,8.52
2023-03-06T04:16:42.725Z,10.48
2023-03-06T04:17:44.944Z,11.82
2023-03-06T04:18:47.236Z,12.65
2023-03-06T04:19:49.421Z,12.15
2023-03-06T04:20:52.612Z,11.40
2023-03-06T04:21:54.710Z,11.18
2023-03-06T04:22:57.038Z,11.45
2023-03-06T04:23:58.972Z,11.10
2023-03-06T04:25:00.831Z,11.30
2023-03-06T04:26:03.122Z,13.07
2023-03-06T04:27:05.362Z,11.63
2023-03-06T04:28:08.871Z,10.82
2023-03-06T04:29:10.824Z,11.05
2023-03-06T04:30:13.100Z,11.20
2023-03-06T04:31:15.236Z,14.93
2023-03-06T04:32:19.720Z,18.12
2023-03-06T04:33:23.763Z,15.15
2023-03-06T04:34:25.856Z,11.82
2023-03-06T04:35:27.889Z,21.50
2023-03-06T04:36:34.745Z,19.20
2023-03-06T04:37:36.975Z,18.55
2023-03-06T04:38:39.828Z,16.98
2023-03-06T04:39:41.688Z,19.65
2023-03-06T04:40:44.997Z,18.73
2023-03-06T04:41:47.095Z,17.83
2023-03-06T04:42:49.285Z,17.10
2023-03-06T04:43:51.921Z,18.75
2023-03-06T04:44:53.803Z,16.48
2023-03-06T04:45:55.756Z,18.08
2023-03-06T04:46:57.642Z,19.62
2023-03-06T04:47:59.943Z,19.67
2023-03-06T04:49:02.194Z,20.15
2023-03-06T04:50:04.954Z,18.20
2023-03-06T04:51:07.161Z,17.85
2023-03-06T04:52:09.054Z,19.30
2023-03-06T04:53:11.117Z,18.35
2023-03-06T04:54:13.303Z,13.57
2023-03-06T04:55:16.789Z,10.65
2023-03-06T04:56:18.941Z,9.30
2023-03-06T04:57:20.919Z,7.37
2023-03-06T04:58:22.952Z,7.35
2023-03-06T04:59:25.255Z,7.62
2023-03-06T05:00:31.904Z,7.00
2023-03-06T05:01:33.844Z,6.90
2023-03-06T05:02:36.747Z,7.47
2023-03-06T05:03:38.808Z,7.62
2023-03-06T05:04:40.934Z,6.90
2023-03-06T05:05:43.184Z,7.60
2023-03-06T05:06:45.093Z,7.18
2023-03-06T05:07:47.028Z,6.62
2023-03-06T05:08:49.009Z,7.68
2023-03-06T05:09:51.169Z,7.22
2023-03-06T05:10:56.221Z,6.80
2023-03-06T05:11:58.304Z,6.97
2023-03-06T05:13:00.318Z,6.70
2023-03-06T05:14:02.176Z,7.93
2023-03-06T05:15:05.633Z,7.60
2023-03-06T05:16:08.202Z,7.12
2023-03-06T05:17:10.511Z,7.22
2023-03-06T05:18:12.428Z,7.65
2023-03-06T05:19:14.299Z,7.05
2023-03-06T05:20:17.755Z,7.20
2023-03-06T05:21:19.695Z,6.95
2023-03-06T05:22:21.890Z,7.18
2023-03-06T05:23:23.725Z,6.85
2023-03-06T05:24:25.592Z,7.05
2023-03-06T05:25:27.736Z,7.47
2023-03-06T05:26:29.633Z,7.57
2023-03-06T05:27:31.492Z,11.30
2023-03-06T05:28:33.339Z,12.05
2023-03-06T05:29:35.164Z,11.55
2023-03-06T05:30:37.372Z,11.15
2023-03-06T05:31:39.338Z,12.40
2023-03-06T05:32:41.693Z,15.73
2023-03-06T05:33:43.592Z,23.02
2023-03-06T05:34:45.441Z,18.85
2023-03-06T05:35:48.686Z,20.55
2023-03-06T05:36:50.666Z,20.00
2023-03-06T05:37:52.820Z,15.82
2023-03-06T05:38:55.159Z,12.65
2023-03-06T05:39:57.071Z,10.80
2023-03-06T05:40:59.268Z,10.60
2023-03-06T05:42:01.213Z,10.95
2023-03-06T05:43:03.109Z,11.52
2023-03-06T05:44:05.149Z,12.07
2023-03-06T05:45:07.856Z,12.55
2023-03-06T05:46:11.537Z,12.90
2023-03-06T05:47:13.623Z,16.20
2023-03-06T05:48:15.533Z,19.55
2023-03-06T05:49:17.456Z,17.30
2023-03-06T05:50:19.391Z,17.45
2023-03-06T05:51:21.637Z,8.15
2023-03-06T05:52:23.489Z,13.70
2023-03-06T05:53:26.749Z,10.05
2023-03-06T05:54:28.600Z,10.23
2023-03-06T05:55:30.629Z,8.82
2023-03-06T05:56:32.876Z,10.43
2023-03-06T05:57:34.736Z,9.80
2023-03-06T05:58:37.197Z,8.40
2023-03-06T05:59:39.129Z,9.30
2023-03-06T06:00:41.148Z,9.77
2023-03-06T06:01:43.512Z,8.98
2023-03-06T06:02:46.626Z,8.75
2023-03-06T06:03:48.616Z,9.40
2023-03-06T06:04:50.499Z,10.25
2023-03-06T06:05:52.780Z,10.88
2023-03-06T06:07:00.207Z,10.40
2023-03-06T06:08:02.337Z,10.57
2023-03-06T06:09:04.563Z,11.55
2023-03-06T06:10:07.279Z,11.05
2023-03-06T06:11:11.011Z,10.85
2023-03-06T06:12:14.355Z,10.20
2023-03-06T06:13:16.306Z,8.88
2023-03-06T06:14:18.226Z,8.63
2023-03-06T06:15:20.122Z,8.50
2023-03-06T06:16:22.515Z,7.68
2023-03-06T06:17:24.851Z,7.57
2023-03-06T06:18:26.832Z,10.73
2023-03-06T06:19:30.283Z,29.45
2023-03-06T06:20:32.327Z,53.83
2023-03-06T06:21:34.300Z,43.00
2023-03-06T06:22:38.006Z,25.90
2023-03-06T06:23:40.541Z,19.25
2023-03-06T06:24:42.460Z,12.07
2023-03-06T06:25:44.376Z,8.80
2023-03-06T06:26:46.333Z,8.23
2023-03-06T06:27:48.481Z,7.62
2023-03-06T06:28:50.549Z,8.15
2023-03-06T06:29:52.647Z,9.15
2023-03-06T06:30:54.698Z,9.00
2023-03-06T06:31:56.951Z,16.75
2023-03-06T06:32:59.925Z,26.73
2023-03-06T06:34:01.810Z,44.67
2023-03-06T06:35:04.380Z,49.25
2023-03-06T06:36:14.338Z,42.83
2023-03-06T06:37:16.758Z,34.58
2023-03-06T06:38:19.719Z,32.90
2023-03-06T06:39:23.438Z,23.70
2023-03-06T06:40:27.577Z,16.90
2023-03-06T06:41:50.690Z,13.90
2023-03-06T06:42:53.104Z,12.82
2023-03-06T06:43:56.307Z,10.60
2023-03-06T06:44:59.223Z,11.52
2023-03-06T06:46:23.068Z,11.05
2023-03-06T06:47:25.076Z,11.02
2023-03-06T06:48:27.547Z,12.88
2023-03-06T06:49:29.710Z,13.43
2023-03-06T06:50:31.587Z,11.75
2023-03-06T06:51:34.076Z,12.25
2023-03-06T06:52:35.957Z,25.12
2023-03-06T06:53:37.804Z,21.37
2023-03-06T06:54:39.939Z,31.15
2023-03-06T06:55:42.955Z,29.83
2023-03-06T06:56:44.783Z,21.95
2023-03-06T06:57:46.725Z,12.75
2023-03-06T06:58:48.642Z,11.68
2023-03-06T06:59:53.358Z,10.55
2023-03-06T07:00:55.886Z,10.60
2023-03-06T07:01:57.780Z,9.90
2023-03-06T07:02:59.694Z,9.20
2023-03-06T07:04:01.946Z,9.55
2023-03-06T07:05:05.597Z,8.98
2023-03-06T07:06:07.979Z,9.40
2023-03-06T07:07:10.073Z,9.23
2023-03-06T07:08:11.968Z,11.57
2023-03-06T07:09:14.361Z,12.07
2023-03-06T07:10:17.039Z,11.95
2023-03-06T07:11:20.103Z,11.70
2023-03-06T07:12:22.148Z,13.13
2023-03-06T07:13:24.093Z,12.98
2023-03-06T07:14:26.020Z,11.93
2023-03-06T07:15:29.947Z,11.35
2023-03-06T07:16:31.920Z,16.05
2023-03-06T07:17:34.108Z,27.20
2023-03-06T07:18:36.063Z,10.98
2023-03-06T07:19:38.686Z,9.32
2023-03-06T07:20:42.069Z,9.45
2023-03-06T07:21:43.945Z,8.80
2023-03-06T07:22:51.246Z,9.27
2023-03-06T07:23:54.398Z,12.02
2023-03-06T07:24:56.346Z,14.80
2023-03-06T07:25:59.165Z,11.57
2023-03-06T07:27:01.081Z,9.13
2023-03-06T07:28:02.965Z,9.27
2023-03-06T07:29:05.106Z,11.20
2023-03-06T07:30:08.197Z,13.02
2023-03-06T07:31:11.638Z,12.15
2023-03-06T07:32:13.565Z,11.52
2023-03-06T07:33:16.039Z,9.77
2023-03-06T07:34:17.886Z,10.25
2023-03-06T07:35:20.935Z,9.45
2023-03-06T07:36:24.212Z,9.85
2023-03-06T07:37:26.136Z,10.05
2023-03-06T07:38:28.050Z,11.70
2023-03-06T07:39:30.361Z,10.40
2023-03-06T07:40:32.263Z,10.63
2023-03-06T07:41:34.836Z,10.30
2023-03-06T07:42:36.673Z,11.02
2023-03-06T07:43:38.876Z,9.80
2023-03-06T07:44:42.072Z,9.95
2023-03-06T07:45:44.052Z,10.77
2023-03-06T07:46:46.306Z,10.27
2023-03-06T07:47:50.670Z,10.98
2023-03-06T07:48:52.633Z,9.27
2023-03-06T07:49:56.435Z,10.77
2023-03-06T07:51:03.342Z,9.93
2023-03-06T07:52:05.659Z,10.00
2023-03-06T07:53:07.638Z,12.02
2023-03-06T07:54:09.743Z,11.23
2023-03-06T07:55:12.113Z,11.25
2023-03-06T07:56:14.414Z,10.95
2023-03-06T07:57:16.663Z,12.55
2023-03-06T07:58:18.528Z,15.30
2023-03-06T07:59:20.391Z,13.00
2023-03-06T08:00:22.569Z,14.35
2023-03-06T08:01:25.127Z,16.15
2023-03-06T08:02:27.063Z,19.73
2023-03-06T08:03:28.981Z,23.62
2023-03-06T08:04:30.920Z,18.17
2023-03-06T08:05:32.841Z,17.65
2023-03-06T08:06:35.181Z,19.02
2023-03-06T08:07:37.133Z,21.17
2023-03-06T08:08:40.676Z,14.63
2023-03-06T08:09:42.522Z,12.37
2023-03-06T08:10:49.052Z,11.18
2023-03-06T08:11:51.597Z,12.02
2023-03-06T08:12:53.645Z,12.95
2023-03-06T08:13:57.398Z,13.07
2023-03-06T08:14:59.274Z,14.43
2023-03-06T08:16:01.461Z,15.32
2023-03-06T08:17:03.830Z,17.83
2023-03-06T08:18:05.728Z,17.40
2023-03-06T08:19:07.939Z,16.90
2023-03-06T08:20:10.572Z,15.90
2023-03-06T08:21:14.859Z,15.57
2023-03-06T08:22:17.073Z,15.63
2023-03-06T08:23:18.990Z,15.35
2023-03-06T08:24:20.964Z,14.68
2023-03-06T08:25:24.671Z,13.13
2023-03-06T08:26:29.410Z,11.05
2023-03-06T08:27:32.956Z,11.32
2023-03-06T08:28:35.315Z,11.07
2023-03-06T08:29:37.225Z,11.02
2023-03-06T08:30:39.144Z,11.48
2023-03-06T08:31:46.140Z,11.40
2023-03-06T08:32:48.533Z,14.25
2023-03-06T08:33:50.620Z,10.63
2023-03-06T08:34:52.907Z,11.38
2023-03-06T08:35:54.841Z,12.70
2023-03-06T08:36:56.660Z,12.02
2023-03-06T08:37:58.834Z,11.43
2023-03-06T08:39:01.334Z,10.73
2023-03-06T08:40:04.714Z,10.15
2023-03-06T08:41:06.764Z,10.20
2023-03-06T08:42:10.540Z,8.23
2023-03-06T08:43:14.148Z,9.13
2023-03-06T08:44:16.246Z,8.35
2023-03-06T08:45:18.110Z,7.60
2023-03-06T08:46:23.375Z,8.02
2023-03-06T08:47:25.356Z,8.27
2023-03-06T08:48:27.925Z,7.22
2023-03-06T08:49:30.639Z,8.30
2023-03-06T08:50:32.565Z,7.78
2023-03-06T08:51:34.672Z,8.23
2023-03-06T08:52:36.576Z,8.52
2023-03-06T08:53:43.897Z,8.40
2023-03-06T08:54:46.835Z,9.18
2023-03-06T08:55:48.681Z,8.60
2023-03-06T08:56:50.538Z,8.70
2023-03-06T08:57:52.393Z,8.80
2023-03-06T08:58:56.063Z,8.73
2023-03-06T08:59:57.929Z,9.57
2023-03-06T09:00:59.901Z,9.57
2023-03-06T09:02:01.990Z,8.80
2023-03-06T09:03:04.842Z,10.50
2023-03-06T09:04:11.096Z,8.90
2023-03-06T09:05:12.953Z,8.68
2023-03-06T09:06:15.537Z,8.55
2023-03-06T09:07:17.459Z,9.35
2023-03-06T09:08:19.303Z,9.85
2023-03-06T09:09:21.489Z,10.73
2023-03-06T09:10:25.681Z,10.13
2023-03-06T09:11:28.036Z,8.27
2023-03-06T09:12:32.600Z,9.18
2023-03-06T09:13:39.183Z,8.80
2023-03-06T09:14:41.488Z,11.05
2023-03-06T09:15:43.391Z,10.30
2023-03-06T09:16:45.256Z,9.15
2023-03-06T09:17:50.885Z,8.55
2023-03-06T09:18:54.102Z,9.07
2023-03-06T09:19:56.292Z,10.88
2023-03-06T09:20:58.209Z,10.15
2023-03-06T09:22:01.066Z,9.73
2023-03-06T09:23:03.038Z,9.27
2023-03-06T09:24:05.077Z,9.32
2023-03-06T09:25:07.606Z,9.32
2023-03-06T09:26:09.553Z,9.68
2023-03-06T09:27:11.462Z,9.95
2023-03-06T09:28:13.283Z,9.02
2023-03-06T09:29:16.575Z,9.50
2023-03-06T09:30:19.161Z,11.48
2023-03-06T09:31:21.362Z,8.90
2023-03-06T09:32:24.274Z,8.43
2023-03-06T09:33:28.728Z,8.82
2023-03-06T09:34:30.674Z,8.77
2023-03-06T09:35:32.965Z,8.00
2023-03-06T09:36:49.282Z,9.13
2023-03-06T09:37:56.948Z,9.52
2023-03-06T09:38:58.837Z,8.27
2023-03-06T09:40:00.722Z,8.50
2023-03-06T09:41:11.744Z,7.78
2023-03-06T09:42:20.310Z,7.50
2023-03-06T09:43:28.245Z,8.18
2023-03-06T09:44:33.606Z,7.45
2023-03-06T09:45:37.292Z,8.32
2023-03-06T09:47:00.903Z,8.95
2023-03-06T09:48:13.608Z,9.50
2023-03-06T09:50:01.741Z,9.15
2023-03-06T09:51:12.566Z,9.20
2023-03-06T09:52:30.002Z,8.68
2023-03-06T09:54:02.652Z,8.80
2023-03-06T09:55:16.459Z,8.80
2023-03-06T09:56:22.074Z,9.32
2023-03-06T09:57:35.377Z,10.20
2023-03-06T09:58:47.508Z,8.73
2023-03-06T09:59:53.848Z,8.98
2023-03-06T10:01:03.708Z,9.00
2023-03-06T10:02:21.013Z,7.37
2023-03-06T10:03:54.941Z,7.40
2023-03-06T10:05:01.126Z,7.15
2023-03-06T10:06:23.075Z,6.53
2023-03-06T10:07:43.325Z,7.15
2023-03-06T10:08:54.118Z,6.90
2023-03-06T10:10:06.018Z,8.35
2023-03-06T10:11:11.534Z,7.87
2023-03-06T10:12:24.511Z,7.87
2023-03-06T10:13:39.526Z,8.60
2023-03-06T10:15:09.015Z,8.02
2023-03-06T10:16:23.587Z,7.60
2023-03-06T10:17:30.780Z,7.82
2023-03-06T10:18:33.460Z,6.85
2023-03-06T10:19:37.937Z,7.45
2023-03-06T10:21:18.631Z,7.07
2023-03-06T10:22:52.576Z,7.18
2023-03-06T10:24:21.042Z,6.90
2023-03-06T10:25:26.169Z,7.10
2023-03-06T10:26:40.347Z,8.40
2023-03-06T10:27:48.237Z,7.72
2023-03-06T10:28:52.917Z,7.35
2023-03-06T10:30:23.161Z,6.95
2023-03-06T10:31:27.788Z,7.32
2023-03-06T10:32:51.215Z,8.38
2023-03-06T10:33:58.111Z,7.55
2023-03-06T10:35:01.913Z,7.57
2023-03-06T10:36:04.693Z,7.30
2023-03-06T10:37:21.566Z,6.47
2023-03-06T10:38:37.364Z,7.43
2023-03-06T10:39:39.630Z,7.10
2023-03-06T10:41:10.962Z,7.22
2023-03-06T10:42:12.853Z,7.47
2023-03-06T10:43:14.702Z,7.20
2023-03-06T10:44:17.386Z,7.78
2023-03-06T10:45:19.464Z,6.80
2023-03-06T10:46:39.839Z,7.53
2023-03-06T10:47:42.902Z,8.15
2023-03-06T10:48:58.003Z,6.68
2023-03-06T10:50:02.522Z,7.25
2023-03-06T10:51:25.602Z,7.82
2023-03-06T10:52:33.617Z,7.47
2023-03-06T10:53:35.510Z,8.15
2023-03-06T10:54:43.429Z,8.00
2023-03-06T10:55:59.209Z,7.80
2023-03-06T10:57:17.664Z,8.15
2023-03-06T10:58:29.070Z,8.10
2023-03-06T10:59:31.075Z,7.68
2023-03-06T11:00:38.283Z,8.23
2023-03-06T11:01:42.948Z,7.60
2023-03-06T11:02:44.929Z,7.62
2023-03-06T11:03:47.864Z,8.27
2023-03-06T11:04:53.387Z,8.93
2023-03-06T11:06:07.404Z,8.98
2023-03-06T11:07:23.356Z,8.45
2023-03-06T11:08:25.212Z,8.55
2023-03-06T11:09:27.386Z,8.77
2023-03-06T11:10:31.753Z,7.90
2023-03-06T11:11:37.851Z,8.30
2023-03-06T11:12:42.537Z,7.87
2023-03-06T11:13:44.598Z,8.90
2023-03-06T11:14:46.960Z,8.43
2023-03-06T11:15:57.514Z,7.68
2023-03-06T11:16:59.468Z,9.10
2023-03-06T11:18:23.988Z,8.77
2023-03-06T11:19:28.788Z,8.73
2023-03-06T11:20:51.948Z,8.80
2023-03-06T11:22:05.962Z,9.10
2023-03-06T11:23:17.284Z,8.85
2023-03-06T11:24:20.917Z,8.20
2023-03-06T11:25:29.238Z,7.97
2023-03-06T11:26:41.188Z,9.15
2023-03-06T11:27:46.977Z,9.50
2023-03-06T11:29:12.153Z,9.05
2023-03-06T11:30:21.524Z,9.10
2023-03-06T11:31:28.237Z,9.00
2023-03-06T11:32:36.892Z,8.88
2023-03-06T11:34:00.282Z,9.23
2023-03-06T11:35:05.772Z,10.65
2023-03-06T11:36:25.052Z,13.50
2023-03-06T11:37:32.720Z,12.13
2023-03-06T11:38:52.567Z,9.23
2023-03-06T11:40:13.627Z,8.90
2023-03-06T11:41:32.716Z,8.63
2023-03-06T11:42:40.751Z,9.27
2023-03-06T11:44:06.435Z,8.45
2023-03-06T11:45:19.179Z,8.48
2023-03-06T11:46:26.393Z,9.10
2023-03-06T11:47:46.311Z,8.40
2023-03-06T11:49:05.282Z,10.25
2023-03-06T11:50:22.993Z,11.32
2023-03-06T11:51:33.365Z,12.32
2023-03-06T11:52:47.539Z,10.23
2023-03-06T11:53:49.797Z,9.45
2023-03-06T11:54:57.757Z,10.30
2023-03-06T11:56:16.189Z,8.95
2023-03-06T11:57:23.105Z,8.50
2023-03-06T11:58:48.863Z,11.45
2023-03-06T12:00:06.567Z,10.35
2023-03-06T12:01:43.415Z,12.55
2023-03-06T12:03:05.701Z,10.57
2023-03-06T12:04:46.744Z,13.20
2023-03-06T12:06:10.494Z,12.88
2023-03-06T12:07:41.913Z,12.48
2023-03-06T12:09:09.808Z,10.32
2023-03-06T12:10:14.495Z,9.93
2023-03-06T12:11:45.684Z,12.37
2023-03-06T12:12:53.159Z,10.20
2023-03-06T12:14:13.922Z,10.93
2023-03-06T12:15:37.787Z,11.93
2023-03-06T12:16:48.291Z,12.85
2023-03-06T12:18:05.372Z,11.57
2023-03-06T12:19:41.484Z,11.73
2023-03-06T12:21:10.153Z,10.23
2023-03-06T12:22:20.805Z,16.20
2023-03-06T12:23:50.133Z,15.40
2023-03-06T12:25:15.939Z,13.15
2023-03-06T12:26:23.454Z,12.45
2023-03-06T12:27:34.412Z,18.02
2023-03-06T12:28:42.366Z,26.60
2023-03-06T12:30:06.479Z,11.75
2023-03-06T12:31:16.068Z,10.95
2023-03-06T12:32:27.760Z,9.48
2023-03-06T12:33:37.125Z,9.63
2023-03-06T12:35:01.118Z,8.77
2023-03-06T12:36:18.240Z,16.55
2023-03-06T12:37:35.433Z,14.80
2023-03-06T12:38:58.521Z,13.73
2023-03-06T12:40:21.505Z,14.63
2023-03-06T12:41:38.864Z,14.38
2023-03-06T12:43:04.815Z,14.30
2023-03-06T12:44:15.562Z,14.00
2023-03-06T12:45:22.823Z,16.42
2023-03-06T12:46:27.346Z,17.02
2023-03-06T12:47:33.278Z,16.75
2023-03-06T12:48:37.512Z,14.43
2023-03-06T12:49:48.463Z,13.25
2023-03-06T12:50:51.579Z,17.35
2023-03-06T12:51:55.572Z,19.83
2023-03-06T12:53:07.326Z,18.23
2023-03-06T12:55:16.722Z,23.70
2023-03-06T12:56:20.815Z,19.75
2023-03-06T12:57:24.974Z,16.10
2023-03-06T12:58:30.063Z,18.12
2023-03-06T12:59:44.621Z,18.35
2023-03-06T13:01:04.162Z,21.15
2023-03-06T13:02:34.254Z,16.12
2023-03-06T13:04:05.149Z,18.08
2023-03-06T13:05:25.850Z,18.83
2023-03-06T13:07:15.115Z,22.42
2023-03-06T13:08:44.255Z,22.13
2023-03-06T13:10:02.736Z,18.62
2023-03-06T13:11:19.385Z,21.73
2023-03-06T13:12:40.019Z,23.98
2023-03-06T13:13:45.142Z,21.85
2023-03-06T13:14:54.023Z,19.50
2023-03-06T13:16:14.723Z,22.90
2023-03-06T13:17:38.139Z,22.55
2023-03-06T13:18:54.296Z,27.42
2023-03-06T13:20:14.288Z,15.77
2023-03-06T13:21:54.353Z,15.50
2023-03-06T13:22:56.804Z,22.98
2023-03-06T13:24:32.439Z,15.48
2023-03-06T13:25:35.623Z,16.98
2023-03-06T13:26:37.424Z,19.12
2023-03-06T13:27:54.673Z,21.52
2023-03-06T13:28:58.261Z,24.60
2023-03-06T13:30:27.216Z,20.73
2023-03-06T13:31:36.453Z,19.42
2023-03-06T13:32:38.469Z,20.77
2023-03-06T13:33:40.376Z,20.17
2023-03-06T13:34:49.963Z,18.55
2023-03-06T13:35:55.907Z,15.95
2023-03-06T13:37:23.096Z,11.32
2023-03-06T13:38:32.599Z,17.12
2023-03-06T13:39:58.345Z,13.85
2023-03-06T13:41:19.021Z,13.70
2023-03-06T13:42:32.840Z,15.95
2023-03-06T13:43:43.879Z,13.80
2023-03-06T13:44:49.678Z,15.32
2023-03-06T13:45:51.720Z,15.25
2023-03-06T13:47:04.889Z,14.90
2023-03-06T13:48:30.252Z,13.25
2023-03-06T13:49:30.015Z,13.68
2023-03-06T13:50:47.076Z,10.52
2023-03-06T13:51:51.855Z,12.02
2023-03-06T13:53:16.736Z,10.80
2023-03-06T13:54:39.782Z,12.13
2023-03-06T13:56:10.158Z,10.07
2023-03-06T13:57:12.006Z,12.75
2023-03-06T13:58:25.433Z,11.30
2023-03-06T14:00:08.199Z,11.30
2023-03-06T14:01:53.079Z,12.23
2023-03-06T14:03:22.810Z,11.85
2023-03-06T14:04:34.328Z,11.55
2023-03-06T14:05:47.942Z,11.65
2023-03-06T14:07:12.023Z,12.45
2023-03-06T14:08:20.701Z,13.27
2023-03-06T14:09:44.266Z,12.00
2023-03-06T14:10:49.282Z,11.35
2023-03-06T14:12:00.726Z,11.23
2023-03-06T14:13:06.632Z,11.05
2023-03-06T14:14:11.996Z,12.20
2023-03-06T14:15:19.424Z,12.32
2023-03-06T14:16:49.365Z,11.55
2023-03-06T14:18:05.623Z,12.30
2023-03-06T14:19:17.293Z,13.23
2023-03-06T14:20:20.799Z,14.05
2023-03-06T14:21:45.559Z,13.10
2023-03-06T14:22:47.599Z,10.70
2023-03-06T14:24:01.563Z,12.30
2023-03-06T14:25:15.044Z,10.77
2023-03-06T14:26:28.671Z,13.00
2023-03-06T14:27:47.607Z,13.30